Time;durP1;ratioP1;P1;durP2;ratioP2;P2;SDS_P1;SDS_P2;PMS_P1;PMS_P2;Temp;Humidity;BMP_temperature;BMP_pressure;BME280_temperature;BME280_humidity;BME280_pressure;Samples;Min_cycle;Max_cycle;Signal;HPM_P1;HPM_P2
2021/01/22 07:03:30;;;;;;;28.33;12.45;;;;;;;;;;5073946;27;20402;-64
2021/01/22 07:05:55;;;;;;;28.00;12.50;;;;;;;;;;5066254;28;20090;-62
2021/01/22 07:08:40;;;;;;;29.33;15.68;;;;;;;;;;5059633;28;20034;-64
2021/01/22 07:11:06;;;;;;;21.25;11.15;;;;;;;;;;5056688;28;20479;-68
2021/01/22 07:13:32;;;;;;;23.77;10.35;;;;;;;;;;5066840;28;20056;-70
2021/01/22 07:16:01;;;;;;;17.25;10.18;;;;;;;;;;5065916;28;20009;-68
2021/01/22 07:18:26;;;;;;;21.35;11.13;;;;;;;;;;5066161;28;20075;-62
2021/01/22 07:21:11;;;;;;;22.33;10.70;;;;;;;;;;5055274;28;20100;-63
2021/01/22 07:23:37;;;;;;;23.70;11.50;;;;;;;;;;5058406;28;20332;-63
2021/01/22 07:26:04;;;;;;;18.05;10.63;;;;;;;;;;5059286;28;20083;-63
2021/01/22 07:28:29;;;;;;;21.52;10.32;;;;;;;;;;5064861;28;20032;-62
2021/01/22 07:30:54;;;;;;;16.33;9.07;;;;;;;;;;5040990;28;20020;-62
2021/01/22 07:33:30;;;;;;;18.88;11.05;;;;;;;;;;5067504;28;20020;-62
2021/01/22 07:36:05;;;;;;;17.67;9.32;;;;;;;;;;5066660;28;20021;-63
2021/01/22 07:38:30;;;;;;;24.42;10.55;;;;;;;;;;5051175;28;20547;-63
2021/01/22 07:40:56;;;;;;;20.58;9.45;;;;;;;;;;5059867;28;20107;-63
2021/01/22 07:43:23;;;;;;;26.70;11.18;;;;;;;;;;5065594;28;20473;-63
2021/01/22 07:45:49;;;;;;;21.23;10.65;;;;;;;;;;5066768;28;20096;-62
2021/01/22 07:48:24;;;;;;;18.45;9.63;;;;;;;;;;5063637;28;20501;-62
2021/01/22 07:50:49;;;;;;;19.13;9.52;;;;;;;;;;5062055;28;20111;-62
2021/01/22 07:53:17;;;;;;;25.65;9.70;;;;;;;;;;5070774;28;20095;-63
2021/01/22 07:55:50;;;;;;;18.73;9.68;;;;;;;;;;5066709;28;20031;-62
2021/01/22 07:58:17;;;;;;;21.20;9.68;;;;;;;;;;5065748;28;20378;-63
2021/01/22 08:00:43;;;;;;;21.15;8.88;;;;;;;;;;5065746;28;20028;-63
2021/01/22 08:03:11;;;;;;;16.10;9.10;;;;;;;;;;5064516;28;20056;-63
2021/01/22 08:05:37;;;;;;;21.00;9.18;;;;;;;;;;5062592;28;20578;-63
2021/01/22 08:08:15;;;;;;;19.73;10.13;;;;;;;;;;5064449;28;20055;-62
2021/01/22 08:10:41;;;;;;;18.98;8.73;;;;;;;;;;5044199;28;20112;-62
2021/01/22 08:13:06;;;;;;;21.25;10.48;;;;;;;;;;5062232;28;20116;-63
2021/01/22 08:15:32;;;;;;;24.42;9.68;;;;;;;;;;5078423;28;20021;-64
2021/01/22 08:17:57;;;;;;;20.45;9.38;;;;;;;;;;5060333;28;20355;-63
2021/01/22 08:20:23;;;;;;;21.02;10.15;;;;;;;;;;5051652;28;20017;-63
2021/01/22 08:22:52;;;;;;;20.58;10.40;;;;;;;;;;5056819;28;20028;-65
2021/01/22 08:25:26;;;;;;;21.05;10.10;;;;;;;;;;5034809;28;20497;-65
2021/01/22 08:27:55;;;;;;;20.73;9.07;;;;;;;;;;5060655;28;20540;-67
2021/01/22 08:30:21;;;;;;;20.73;8.95;;;;;;;;;;5055673;28;20035;-66
2021/01/22 08:32:47;;;;;;;19.50;9.45;;;;;;;;;;5068135;28;20166;-65
2021/01/22 08:35:13;;;;;;;21.75;8.45;;;;;;;;;;5059940;28;20092;-67
2021/01/22 08:37:38;;;;;;;16.88;8.07;;;;;;;;;;5061912;28;20056;-67
2021/01/22 08:40:04;;;;;;;21.02;8.00;;;;;;;;;;5055726;28;20013;-66
2021/01/22 08:42:31;;;;;;;18.33;9.00;;;;;;;;;;5056494;28;20082;-67
2021/01/22 08:44:58;;;;;;;31.83;12.70;;;;;;;;;;5050987;28;20021;-68
2021/01/22 08:47:24;;;;;;;35.50;14.60;;;;;;;;;;5052722;28;20024;-67
2021/01/22 08:49:51;;;;;;;29.88;13.45;;;;;;;;;;5055288;28;20342;-67
2021/01/22 08:52:16;;;;;;;27.25;11.25;;;;;;;;;;5053050;28;20020;-67
2021/01/22 08:54:43;;;;;;;21.77;9.55;;;;;;;;;;5060131;28;20021;-69
2021/01/22 08:57:09;;;;;;;23.42;11.32;;;;;;;;;;5054099;28;20033;-67
2021/01/22 08:59:44;;;;;;;23.15;11.43;;;;;;;;;;5054301;28;20016;-66
2021/01/22 09:02:10;;;;;;;26.55;12.40;;;;;;;;;;5046366;28;20083;-65
2021/01/22 09:04:35;;;;;;;33.05;12.43;;;;;;;;;;5051317;28;20056;-66
2021/01/22 09:07:02;;;;;;;42.15;17.33;;;;;;;;;;5052965;28;20038;-65
2021/01/22 09:09:39;;;;;;;39.90;16.90;;;;;;;;;;5049726;28;20028;-65
2021/01/22 09:12:16;;;;;;;29.13;13.57;;;;;;;;;;5049714;28;20056;-65
2021/01/22 09:14:52;;;;;;;35.72;13.93;;;;;;;;;;5050931;28;20041;-64
2021/01/22 09:17:20;;;;;;;28.52;11.32;;;;;;;;;;5054651;28;20025;-65
2021/01/22 09:19:54;;;;;;;31.08;12.23;;;;;;;;;;5044484;28;20366;-64
2021/01/22 09:22:23;;;;;;;28.63;13.45;;;;;;;;;;5047389;28;20146;-63
2021/01/22 09:24:50;;;;;;;26.92;12.70;;;;;;;;;;5052190;28;20032;-63
2021/01/22 09:27:15;;;;;;;34.28;12.63;;;;;;;;;;5060984;28;20039;-64
2021/01/22 09:29:40;;;;;;;23.27;11.88;;;;;;;;;;5062887;28;20029;-67
2021/01/22 09:32:06;;;;;;;23.83;10.77;;;;;;;;;;5038605;28;20017;-69
2021/01/22 09:34:32;;;;;;;28.08;12.27;;;;;;;;;;5030650;28;20005;-69
2021/01/22 09:36:59;;;;;;;28.40;12.65;;;;;;;;;;5043957;28;20100;-67
2021/01/22 09:39:25;;;;;;;24.27;10.57;;;;;;;;;;5039273;28;20478;-68
2021/01/22 09:41:51;;;;;;;19.42;9.75;;;;;;;;;;5038063;28;20036;-66
2021/01/22 09:44:18;;;;;;;22.42;10.02;;;;;;;;;;5039529;28;20061;-64
2021/01/22 09:46:44;;;;;;;25.33;9.77;;;;;;;;;;5047190;28;20035;-62
2021/01/22 09:49:10;;;;;;;16.65;7.90;;;;;;;;;;5056822;28;20017;-63
2021/01/22 09:51:35;;;;;;;21.92;10.68;;;;;;;;;;5061535;28;20066;-64
2021/01/22 09:54:01;;;;;;;21.70;10.40;;;;;;;;;;5053326;28;20492;-64
2021/01/22 09:56:26;;;;;;;21.70;10.43;;;;;;;;;;5050986;28;20068;-65
2021/01/22 09:58:51;;;;;;;21.85;9.13;;;;;;;;;;5051642;28;20013;-64
2021/01/22 10:01:17;;;;;;;32.75;10.15;;;;;;;;;;5050685;28;20128;-62
2021/01/22 10:03:42;;;;;;;22.33;9.18;;;;;;;;;;5049991;28;20059;-64
2021/01/22 10:06:12;;;;;;;18.85;8.43;;;;;;;;;;5055673;28;20593;-63
2021/01/22 10:08:37;;;;;;;;;;;;;;;;;;5046380;28;20386;-64
2021/01/22 10:11:02;;;;;;;22.42;7.30;;;;;;;;;;5050329;28;19908;-63
2021/01/22 10:13:28;;;;;;;26.85;9.57;;;;;;;;;;5042154;28;20095;-65
2021/01/22 10:15:53;;;;;;;17.58;6.88;;;;;;;;;;5038599;28;20033;-64
2021/01/22 10:18:19;;;;;;;26.25;7.35;;;;;;;;;;5052758;28;20025;-64
2021/01/22 10:20:48;;;;;;;13.20;5.18;;;;;;;;;;5054349;28;20818;-62
2021/01/22 10:23:13;;;;;;;17.08;5.07;;;;;;;;;;5049943;28;20051;-63
2021/01/22 10:25:39;;;;;;;12.95;6.53;;;;;;;;;;5050814;28;20127;-64
2021/01/22 10:28:04;;;;;;;15.27;5.03;;;;;;;;;;5034447;28;20052;-63
2021/01/22 10:30:30;;;;;;;19.00;6.25;;;;;;;;;;5052367;28;20075;-64
2021/01/22 10:32:55;;;;;;;17.30;4.93;;;;;;;;;;5067245;28;20365;-63
2021/01/22 10:35:21;;;;;;;14.43;5.60;;;;;;;;;;5062829;28;20541;-63
2021/01/22 10:37:47;;;;;;;14.20;5.20;;;;;;;;;;5061301;28;20028;-64
2021/01/22 10:40:12;;;;;;;10.38;5.05;;;;;;;;;;5055557;28;20020;-63
2021/01/22 10:42:38;;;;;;;17.70;6.40;;;;;;;;;;5065671;28;20039;-63
2021/01/22 10:45:04;;;;;;;20.70;6.45;;;;;;;;;;5056318;28;20495;-64
2021/01/22 10:47:29;;;;;;;16.85;5.53;;;;;;;;;;5060352;28;20029;-62
2021/01/22 10:49:55;;;;;;;19.83;5.75;;;;;;;;;;5062782;28;20016;-63
2021/01/22 10:52:20;;;;;;;15.38;5.28;;;;;;;;;;5054467;28;20104;-62
2021/01/22 10:54:46;;;;;;;14.85;5.18;;;;;;;;;;5066636;28;20016;-62
2021/01/22 10:57:12;;;;;;;13.15;5.75;;;;;;;;;;5061958;28;20600;-62
2021/01/22 10:59:37;;;;;;;21.67;5.78;;;;;;;;;;5063612;28;20017;-61
2021/01/22 11:02:06;;;;;;;19.38;6.85;;;;;;;;;;5051311;28;20406;-62
2021/01/22 11:04:32;;;;;;;14.98;5.60;;;;;;;;;;5051947;28;20052;-62
2021/01/22 11:06:57;;;;;;;12.07;4.93;;;;;;;;;;5058448;28;20078;-61
2021/01/22 11:09:22;;;;;;;14.88;5.85;;;;;;;;;;5055775;28;20147;-61
2021/01/22 11:11:48;;;;;;;18.45;6.93;;;;;;;;;;5048571;28;20492;-62
2021/01/22 11:14:13;;;;;;;12.77;5.35;;;;;;;;;;5050071;28;20037;-63
2021/01/22 11:16:40;;;;;;;14.85;5.80;;;;;;;;;;5049196;28;20033;-62
2021/01/22 11:19:06;;;;;;;19.25;6.82;;;;;;;;;;5052380;28;20576;-62
2021/01/22 11:21:32;;;;;;;17.20;7.10;;;;;;;;;;5061283;28;20032;-62
2021/01/22 11:24:00;;;;;;;20.15;7.63;;;;;;;;;;5039687;28;20022;-63
2021/01/22 11:26:25;;;;;;;15.95;6.72;;;;;;;;;;5059350;28;20096;-63
2021/01/22 11:28:51;;;;;;;15.93;6.78;;;;;;;;;;5054533;28;20021;-63
2021/01/22 11:31:16;;;;;;;15.98;6.75;;;;;;;;;;5050603;28;20494;-63
2021/01/22 11:33:44;;;;;;;19.92;6.43;;;;;;;;;;5049326;28;20080;-63
2021/01/22 11:36:10;;;;;;;16.70;6.78;;;;;;;;;;5048602;28;20438;-63
2021/01/22 11:38:35;;;;;;;16.58;6.97;;;;;;;;;;5023289;28;20140;-63
2021/01/22 11:41:01;;;;;;;18.80;7.18;;;;;;;;;;5043396;28;20082;-63
2021/01/22 11:43:27;;;;;;;18.45;8.43;;;;;;;;;;5043258;28;20024;-61
2021/01/22 11:45:52;;;;;;;18.20;7.18;;;;;;;;;;5035755;28;20033;-63
2021/01/22 11:48:17;;;;;;;30.48;9.60;;;;;;;;;;5038239;28;20025;-63
2021/01/22 11:50:43;;;;;;;24.00;9.98;;;;;;;;;;5044270;28;20074;-62
2021/01/22 11:53:09;;;;;;;27.17;11.77;;;;;;;;;;5039032;28;20024;-63
2021/01/22 11:55:36;;;;;;;25.90;10.55;;;;;;;;;;5048931;28;20013;-62
2021/01/22 11:58:01;;;;;;;26.10;11.02;;;;;;;;;;5052339;28;20557;-63
2021/01/22 12:00:27;;;;;;;17.88;8.45;;;;;;;;;;5052893;28;20124;-62
2021/01/22 12:02:53;;;;;;;19.45;8.82;;;;;;;;;;5036801;28;20127;-62
2021/01/22 12:05:18;;;;;;;19.65;8.07;;;;;;;;;;5040895;28;20122;-62
2021/01/22 12:07:44;;;;;;;15.20;7.00;;;;;;;;;;5036889;28;20022;-62
2021/01/22 12:10:10;;;;;;;29.27;10.65;;;;;;;;;;5044278;28;21053;-62
2021/01/22 12:12:36;;;;;;;17.17;7.68;;;;;;;;;;5040809;28;20013;-62
2021/01/22 12:15:03;;;;;;;15.90;7.43;;;;;;;;;;5032627;28;20193;-70
2021/01/22 12:17:28;;;;;;;14.60;7.05;;;;;;;;;;5048144;28;20020;-69
2021/01/22 12:19:54;;;;;;;20.63;8.90;;;;;;;;;;5065342;28;20024;-71
2021/01/22 12:22:20;;;;;;;24.35;11.10;;;;;;;;;;5055497;28;20037;-69
2021/01/22 12:24:45;;;;;;;24.95;12.40;;;;;;;;;;5068222;28;20080;-71
2021/01/22 12:27:11;;;;;;;17.50;9.25;;;;;;;;;;5031804;28;20496;-69
2021/01/22 12:29:37;;;;;;;25.17;8.57;;;;;;;;;;5052959;28;20388;-71
2021/01/22 12:32:02;;;;;;;25.55;10.52;;;;;;;;;;5061938;28;20081;-73
2021/01/22 12:34:28;;;;;;;26.40;11.82;;;;;;;;;;5061717;28;20474;-72
2021/01/22 12:36:53;;;;;;;33.28;12.25;;;;;;;;;;5061196;28;20017;-75
2021/01/22 12:39:19;;;;;;;25.38;12.70;;;;;;;;;;5052662;28;21083;-73
2021/01/22 12:41:44;;;;;;;32.33;12.63;;;;;;;;;;5051850;28;20060;-76
2021/01/22 12:44:09;;;;;;;25.58;11.32;;;;;;;;;;5043140;28;20029;-72
2021/01/22 12:46:35;;;;;;;19.17;10.18;;;;;;;;;;5057706;28;20024;-73
2021/01/22 12:49:00;;;;;;;22.80;9.48;;;;;;;;;;5062537;28;20036;-76
2021/01/22 12:51:26;;;;;;;19.27;10.30;;;;;;;;;;5060727;28;20028;-73
2021/01/22 12:53:51;;;;;;;21.27;11.45;;;;;;;;;;5054797;28;20535;-71
2021/01/22 12:56:17;;;;;;;28.52;11.00;;;;;;;;;;5051954;28;20025;-73
2021/01/22 12:58:43;;;;;;;17.42;8.35;;;;;;;;;;5053469;28;20062;-72
2021/01/22 13:01:08;;;;;;;18.05;8.70;;;;;;;;;;5058198;28;20478;-70
2021/01/22 13:03:34;;;;;;;31.90;13.00;;;;;;;;;;5051066;28;20041;-70
2021/01/22 13:06:00;;;;;;;19.30;10.45;;;;;;;;;;5054633;28;20021;-69
2021/01/22 13:08:26;;;;;;;17.20;8.52;;;;;;;;;;5059886;28;20025;-69
2021/01/22 13:10:51;;;;;;;23.65;9.35;;;;;;;;;;5063215;28;20027;-70
2021/01/22 13:13:16;;;;;;;20.25;8.98;;;;;;;;;;5049920;28;20549;-68
2021/01/22 13:15:42;;;;;;;15.73;8.73;;;;;;;;;;5057350;28;20024;-69
2021/01/22 13:18:07;;;;;;;20.33;9.23;;;;;;;;;;5066060;28;20025;-71
2021/01/22 13:20:33;;;;;;;21.52;10.88;;;;;;;;;;5053547;28;20168;-69
2021/01/22 13:22:58;;;;;;;22.45;10.45;;;;;;;;;;5046160;28;20032;-68
2021/01/22 13:25:24;;;;;;;19.50;10.55;;;;;;;;;;5034692;28;20013;-71
2021/01/22 13:27:50;;;;;;;24.30;10.45;;;;;;;;;;5034572;28;20051;-72
2021/01/22 13:30:16;;;;;;;21.75;12.02;;;;;;;;;;5035527;28;20473;-70
2021/01/22 13:32:42;;;;;;;25.70;11.50;;;;;;;;;;5049946;28;20025;-72
2021/01/22 13:35:07;;;;;;;24.10;11.30;;;;;;;;;;5049076;28;20504;-69
2021/01/22 13:37:33;;;;;;;19.65;10.57;;;;;;;;;;5052770;28;20013;-68
2021/01/22 13:39:59;;;;;;;24.90;11.88;;;;;;;;;;5060452;28;20036;-67
2021/01/22 13:42:25;;;;;;;21.17;12.00;;;;;;;;;;5060293;28;20064;-67
2021/01/22 13:44:51;;;;;;;27.20;12.65;;;;;;;;;;5036165;28;20040;-68
2021/01/22 13:47:16;;;;;;;28.45;12.32;;;;;;;;;;5035167;28;20017;-68
2021/01/22 13:49:42;;;;;;;23.05;11.52;;;;;;;;;;5039088;28;20025;-72
2021/01/22 13:52:07;;;;;;;24.35;12.43;;;;;;;;;;5043918;28;20516;-74
2021/01/22 13:54:33;;;;;;;23.83;11.27;;;;;;;;;;5036431;28;20025;-72
2021/01/22 13:56:58;;;;;;;24.45;12.43;;;;;;;;;;5071867;28;20019;-74
2021/01/22 13:59:24;;;;;;;23.73;11.73;;;;;;;;;;5062782;28;20535;-69
2021/01/22 14:01:51;;;;;;;25.55;12.13;;;;;;;;;;5037960;28;20524;-73
2021/01/22 14:04:17;;;;;;;25.83;10.68;;;;;;;;;;5029658;28;20451;-74
2021/01/22 14:06:42;;;;;;;27.08;13.25;;;;;;;;;;5041325;28;20062;-71
2021/01/22 14:09:08;;;;;;;24.88;12.27;;;;;;;;;;5038398;28;20439;-74
2021/01/22 14:11:33;;;;;;;29.42;14.35;;;;;;;;;;5038012;28;20071;-74
2021/01/22 14:13:59;;;;;;;34.75;14.05;;;;;;;;;;5032206;28;20417;-71
2021/01/22 14:16:25;;;;;;;28.63;14.90;;;;;;;;;;5032941;28;20466;-72
2021/01/22 14:18:50;;;;;;;39.13;17.55;;;;;;;;;;5038769;28;20066;-72
